createdAt,value
2019-05-20T00:00:54.575Z,19.00
2019-05-20T00:03:24.401Z,19.20
2019-05-20T00:05:57.169Z,18.03
2019-05-20T00:08:27.209Z,19.10
2019-05-20T00:10:57.304Z,18.43
2019-05-20T00:13:29.155Z,18.73
2019-05-20T00:15:59.230Z,19.23
2019-05-20T00:18:29.070Z,19.90
2019-05-20T00:20:59.056Z,20.07
2019-05-20T00:23:30.870Z,21.17
2019-05-20T00:26:00.688Z,20.70
2019-05-20T00:28:32.432Z,20.57
2019-05-20T00:31:03.934Z,21.47
2019-05-20T00:33:34.538Z,20.10
2019-05-20T00:36:05.334Z,21.33
2019-05-20T00:38:35.653Z,20.40
2019-05-20T00:41:07.084Z,21.33
2019-05-20T00:43:38.318Z,21.43
2019-05-20T00:46:08.061Z,20.53
2019-05-20T00:48:38.315Z,21.07
2019-05-20T00:51:08.272Z,21.50
2019-05-20T00:53:39.995Z,23.17
2019-05-20T00:56:14.555Z,22.03
2019-05-20T00:58:44.243Z,23.37
2019-05-20T01:01:15.021Z,23.33
2019-05-20T01:03:47.704Z,24.07
2019-05-20T01:06:17.837Z,23.97
2019-05-20T01:08:47.961Z,25.20
2019-05-20T01:11:18.232Z,24.20
2019-05-20T01:13:48.423Z,23.77
2019-05-20T01:16:19.805Z,23.53
2019-05-20T01:18:49.934Z,22.43
2019-05-20T01:21:20.769Z,25.17
2019-05-20T01:23:51.503Z,23.90
2019-05-20T01:26:22.457Z,24.03
2019-05-20T01:28:52.654Z,23.87
2019-05-20T01:31:22.777Z,24.43
2019-05-20T01:33:53.917Z,23.73
2019-05-20T01:36:24.198Z,23.80
2019-05-20T01:38:54.324Z,23.17
2019-05-20T01:41:24.487Z,24.33
2019-05-20T01:43:54.712Z,23.37
2019-05-20T01:46:25.908Z,26.07
2019-05-20T01:48:57.764Z,26.37
2019-05-20T01:51:28.240Z,26.33
2019-05-20T01:53:58.786Z,26.50
2019-05-20T01:56:33.584Z,26.43
2019-05-20T01:59:03.773Z,27.77
2019-05-20T02:01:34.368Z,25.80
2019-05-20T02:04:05.216Z,26.33
2019-05-20T02:06:37.679Z,28.13
2019-05-20T02:09:10.343Z,27.90
2019-05-20T02:11:42.470Z,28.27
2019-05-20T02:14:21.011Z,28.13
2019-05-20T02:17:02.685Z,28.97
2019-05-20T02:19:34.166Z,28.03
2019-05-20T02:22:05.828Z,28.17
2019-05-20T02:24:35.944Z,27.93
2019-05-20T02:27:08.125Z,29.27
2019-05-20T02:29:38.443Z,28.27
2019-05-20T02:32:09.063Z,29.90
2019-05-20T02:34:41.657Z,28.50
2019-05-20T02:37:12.322Z,28.47
2019-05-20T02:39:44.553Z,29.53
2019-05-20T02:42:15.135Z,28.83
2019-05-20T02:44:46.778Z,28.77
2019-05-20T02:47:17.062Z,28.23
2019-05-20T02:49:51.690Z,28.87
2019-05-20T02:52:22.257Z,27.93
2019-05-20T02:54:53.071Z,31.20
2019-05-20T02:57:23.575Z,29.77
2019-05-20T02:59:54.637Z,31.67
2019-05-20T03:02:25.452Z,32.93
2019-05-20T03:04:55.831Z,32.90
2019-05-20T03:07:27.942Z,31.43
2019-05-20T03:09:59.046Z,32.63
2019-05-20T03:12:29.325Z,31.07
2019-05-20T03:14:59.895Z,32.70
2019-05-20T03:17:30.374Z,32.40
2019-05-20T03:20:00.797Z,32.70
2019-05-20T03:22:33.808Z,32.70
2019-05-20T03:25:09.437Z,35.70
2019-05-20T03:27:40.473Z,36.07
2019-05-20T03:30:12.338Z,32.93
2019-05-20T03:32:42.735Z,34.03
2019-05-20T03:35:14.861Z,34.07
2019-05-20T03:37:47.250Z,27.87
2019-05-20T03:40:17.899Z,27.43
2019-05-20T03:42:48.252Z,27.53
2019-05-20T03:45:18.273Z,28.10
2019-05-20T03:47:49.008Z,26.13
2019-05-20T03:50:20.593Z,26.17
2019-05-20T03:52:50.894Z,25.03
2019-05-20T03:55:22.335Z,25.77
2019-05-20T03:57:53.756Z,27.03
2019-05-20T04:00:43.053Z,26.10
2019-05-20T04:03:14.107Z,24.80
2019-05-20T04:05:44.281Z,24.63
2019-05-20T04:08:14.533Z,25.03
2019-05-20T04:10:46.043Z,25.10
2019-05-20T04:13:18.841Z,23.73
2019-05-20T04:15:50.951Z,24.33
2019-05-20T04:18:21.166Z,25.00
2019-05-20T04:20:56.245Z,24.73
2019-05-20T04:23:26.528Z,23.30
2019-05-20T04:25:58.177Z,24.07
2019-05-20T04:28:28.201Z,22.70
2019-05-20T04:30:58.327Z,23.70
2019-05-20T04:33:28.952Z,24.17
2019-05-20T04:35:59.332Z,23.00
2019-05-20T04:38:29.541Z,23.40
2019-05-20T04:41:00.696Z,23.03
2019-05-20T04:43:31.073Z,22.97
2019-05-20T04:46:02.108Z,22.03
2019-05-20T04:48:35.133Z,23.93
2019-05-20T04:51:06.749Z,22.00
2019-05-20T04:53:38.823Z,22.30
2019-05-20T04:56:09.352Z,21.53
2019-05-20T04:58:40.891Z,21.93
2019-05-20T05:01:11.479Z,20.70
2019-05-20T05:03:43.211Z,20.70
2019-05-20T05:06:14.322Z,20.23
2019-05-20T05:08:44.507Z,20.17
2019-05-20T05:11:15.331Z,21.43
2019-05-20T05:13:47.255Z,21.27
2019-05-20T05:16:17.475Z,21.13
2019-05-20T05:18:47.789Z,21.27
2019-05-20T05:21:20.891Z,21.27
2019-05-20T05:23:59.233Z,21.00
2019-05-20T05:26:22.706Z,21.20
2019-05-20T05:28:56.005Z,21.70
2019-05-20T05:31:26.066Z,21.67
2019-05-20T05:33:57.267Z,22.77
2019-05-20T05:36:27.077Z,21.87
2019-05-20T05:38:57.653Z,23.03
2019-05-20T05:41:28.281Z,24.30
2019-05-20T05:43:58.918Z,22.50
2019-05-20T05:46:29.237Z,23.80
2019-05-20T05:49:00.617Z,22.47
2019-05-20T05:51:30.703Z,23.40
2019-05-20T05:54:00.825Z,24.40
2019-05-20T05:56:30.907Z,23.97
2019-05-20T05:59:00.761Z,25.10
2019-05-20T06:01:30.679Z,24.13
2019-05-20T06:04:01.971Z,24.63
2019-05-20T06:06:33.106Z,26.00
2019-05-20T06:09:04.311Z,24.27
2019-05-20T06:11:34.196Z,24.20
2019-05-20T06:14:03.927Z,24.20
2019-05-20T06:16:36.830Z,24.53
2019-05-20T06:19:07.473Z,23.97
2019-05-20T06:21:37.146Z,24.30
2019-05-20T06:24:08.397Z,24.17
2019-05-20T06:26:38.842Z,25.27
2019-05-20T06:29:09.112Z,24.93
2019-05-20T06:31:40.797Z,24.93
2019-05-20T06:34:30.069Z,24.83
2019-05-20T06:37:02.051Z,25.47
2019-05-20T06:39:31.881Z,25.90
2019-05-20T06:42:01.787Z,24.87
2019-05-20T06:44:31.504Z,25.30
2019-05-20T06:47:01.531Z,23.90
2019-05-20T06:49:31.710Z,25.63
2019-05-20T06:52:01.711Z,25.30
2019-05-20T06:54:31.491Z,25.63
2019-05-20T06:57:02.054Z,25.27
2019-05-20T06:59:31.680Z,25.93
2019-05-20T07:02:02.016Z,25.83
2019-05-20T07:04:32.056Z,25.90
2019-05-20T07:07:02.185Z,25.27
2019-05-20T07:09:33.315Z,27.10
2019-05-20T07:12:04.856Z,26.70
2019-05-20T07:14:34.816Z,25.93
2019-05-20T07:17:04.979Z,27.00
2019-05-20T07:19:34.613Z,26.97
2019-05-20T07:22:04.983Z,27.00
2019-05-20T07:24:34.589Z,28.73
2019-05-20T07:27:04.694Z,28.70
2019-05-20T07:29:34.743Z,30.47
2019-05-20T07:32:04.664Z,31.23
2019-05-20T07:34:35.237Z,30.60
2019-05-20T07:37:05.359Z,31.93
2019-05-20T07:39:36.833Z,32.63
2019-05-20T07:42:06.825Z,32.47
2019-05-20T07:44:37.160Z,31.77
2019-05-20T07:47:10.516Z,31.93
2019-05-20T07:49:39.387Z,32.77
2019-05-20T07:52:09.622Z,33.07
2019-05-20T07:54:39.467Z,34.37
2019-05-20T07:57:12.005Z,34.60
2019-05-20T07:59:43.285Z,32.63
2019-05-20T08:02:14.365Z,33.33
2019-05-20T08:04:45.189Z,35.93
2019-05-20T08:07:27.255Z,36.33
2019-05-20T08:09:46.718Z,36.30
2019-05-20T08:12:16.604Z,36.67
2019-05-20T08:14:46.391Z,37.67
2019-05-20T08:17:17.911Z,36.23
2019-05-20T08:19:47.694Z,37.50
2019-05-20T08:22:17.355Z,37.40
2019-05-20T08:24:47.158Z,36.87
2019-05-20T08:27:17.733Z,37.80
2019-05-20T08:29:47.398Z,37.73
2019-05-20T08:32:18.117Z,38.57
2019-05-20T08:34:47.901Z,37.90
2019-05-20T08:37:17.912Z,39.60
2019-05-20T08:39:48.065Z,38.67
2019-05-20T08:42:19.357Z,40.43
2019-05-20T08:44:49.162Z,39.17
2019-05-20T08:47:18.790Z,37.60
2019-05-20T08:49:48.668Z,39.20
2019-05-20T08:52:19.002Z,39.57
2019-05-20T08:54:48.969Z,39.30
2019-05-20T08:57:18.795Z,39.47
2019-05-20T08:59:49.357Z,40.20
2019-05-20T09:02:19.119Z,38.47
2019-05-20T09:04:49.044Z,38.50
2019-05-20T09:07:19.098Z,39.00
2019-05-20T09:09:49.561Z,38.67
2019-05-20T09:12:19.439Z,40.67
2019-05-20T09:14:49.192Z,41.67
2019-05-20T09:17:19.007Z,40.83
2019-05-20T09:19:49.357Z,42.00
2019-05-20T09:22:19.241Z,40.77
2019-05-20T09:24:49.427Z,41.30
2019-05-20T09:27:19.557Z,39.50
2019-05-20T09:29:49.232Z,39.50
2019-05-20T09:32:19.077Z,40.67
2019-05-20T09:34:49.778Z,40.97
2019-05-20T09:37:19.830Z,40.83
2019-05-20T09:39:51.020Z,40.67
2019-05-20T09:42:20.784Z,40.47
2019-05-20T09:44:50.462Z,38.83
2019-05-20T09:47:20.204Z,40.57
2019-05-20T09:49:49.846Z,42.20
2019-05-20T09:52:19.635Z,41.77
2019-05-20T09:54:49.259Z,41.47
2019-05-20T09:57:19.646Z,39.47
2019-05-20T09:59:49.556Z,39.87
2019-05-20T10:02:19.363Z,39.43
2019-05-20T10:04:49.039Z,41.73
2019-05-20T10:07:19.215Z,41.77
2019-05-20T10:09:48.942Z,40.43
2019-05-20T10:12:18.726Z,40.13
2019-05-20T10:14:48.413Z,41.13
2019-05-20T10:17:21.240Z,39.63
2019-05-20T10:19:51.015Z,40.23
2019-05-20T10:22:20.677Z,38.50
2019-05-20T10:24:50.564Z,38.97
2019-05-20T10:27:20.394Z,39.17
2019-05-20T10:29:50.425Z,37.47
2019-05-20T10:32:20.379Z,38.90
2019-05-20T10:34:50.376Z,37.43
2019-05-20T10:37:20.635Z,39.03
2019-05-20T10:39:50.373Z,39.90
2019-05-20T10:42:20.709Z,39.07
2019-05-20T10:44:50.364Z,40.13
2019-05-20T10:47:20.896Z,37.77
2019-05-20T10:49:50.853Z,38.77
2019-05-20T10:52:20.890Z,39.37
2019-05-20T10:54:51.070Z,40.57
2019-05-20T10:57:21.809Z,40.40
2019-05-20T10:59:53.092Z,40.37
2019-05-20T11:02:24.457Z,39.03
2019-05-20T11:04:54.510Z,40.67
2019-05-20T11:07:24.200Z,40.43
2019-05-20T11:09:54.252Z,41.83
2019-05-20T11:12:24.288Z,41.07
2019-05-20T11:14:54.181Z,41.07
2019-05-20T11:17:23.825Z,40.63
2019-05-20T11:19:53.563Z,41.97
2019-05-20T11:22:23.629Z,39.63
2019-05-20T11:24:54.458Z,40.73
2019-05-20T11:27:24.480Z,40.13
2019-05-20T11:29:54.358Z,42.23
2019-05-20T11:32:24.156Z,41.33
2019-05-20T11:34:53.965Z,42.13
2019-05-20T11:37:24.105Z,41.13
2019-05-20T11:39:53.809Z,39.97
2019-05-20T11:42:24.744Z,39.03
2019-05-20T11:44:54.495Z,38.37
2019-05-20T11:47:24.270Z,38.13
2019-05-20T11:49:54.004Z,38.43
2019-05-20T11:52:24.237Z,39.37
2019-05-20T11:54:54.699Z,39.53
2019-05-20T11:57:25.966Z,39.03
2019-05-20T11:59:55.769Z,37.20
2019-05-20T12:02:27.054Z,36.83
2019-05-20T12:04:58.449Z,38.10
2019-05-20T12:07:29.184Z,38.70
2019-05-20T12:10:00.450Z,36.53
2019-05-20T12:12:30.109Z,38.43
2019-05-20T12:15:03.254Z,39.93
2019-05-20T12:17:34.062Z,39.07
2019-05-20T12:20:11.925Z,40.07
2019-05-20T12:22:41.156Z,40.10
2019-05-20T12:25:11.481Z,39.30
2019-05-20T12:27:41.619Z,38.77
2019-05-20T12:30:12.702Z,39.43
2019-05-20T12:32:43.929Z,40.90
2019-05-20T12:35:14.432Z,39.07
2019-05-20T12:37:45.987Z,39.13
2019-05-20T12:40:16.388Z,38.50
2019-05-20T12:42:47.184Z,40.07
2019-05-20T12:45:17.291Z,40.80
2019-05-20T12:47:47.048Z,39.37
2019-05-20T12:50:17.632Z,40.97
2019-05-20T12:52:47.443Z,42.27
2019-05-20T12:55:19.147Z,39.10
2019-05-20T12:57:50.652Z,41.97
2019-05-20T13:00:21.272Z,43.40
2019-05-20T13:02:51.162Z,42.43
2019-05-20T13:05:20.903Z,41.50
2019-05-20T13:07:50.909Z,42.17
2019-05-20T13:10:31.742Z,40.83
2019-05-20T13:12:53.367Z,41.90
2019-05-20T13:15:23.206Z,41.67
2019-05-20T13:17:52.872Z,41.77
2019-05-20T13:20:23.980Z,41.67
2019-05-20T13:22:56.011Z,40.40
2019-05-20T13:25:25.982Z,42.07
2019-05-20T13:27:55.709Z,42.40
2019-05-20T13:30:26.749Z,41.93
2019-05-20T13:32:56.489Z,42.13
2019-05-20T13:35:28.154Z,42.17
2019-05-20T13:37:57.889Z,40.50
2019-05-20T13:40:43.065Z,43.23
2019-05-20T13:42:59.100Z,44.90
2019-05-20T13:45:28.850Z,43.43
2019-05-20T13:47:59.613Z,41.30
2019-05-20T13:50:31.071Z,43.70
2019-05-20T13:53:00.856Z,41.80
2019-05-20T13:55:31.715Z,41.70
2019-05-20T13:58:01.730Z,41.30
2019-05-20T14:00:32.953Z,44.10
2019-05-20T14:03:21.903Z,42.20
2019-05-20T14:05:53.094Z,44.07
2019-05-20T14:08:22.951Z,42.80
2019-05-20T14:11:03.752Z,41.97
2019-05-20T14:13:24.522Z,40.87
2019-05-20T14:15:54.531Z,40.93
2019-05-20T14:18:24.327Z,42.97
2019-05-20T14:20:54.063Z,42.57
2019-05-20T14:23:23.800Z,43.00
2019-05-20T14:25:53.535Z,44.43
2019-05-20T14:28:24.059Z,42.67
2019-05-20T14:30:53.855Z,44.23
2019-05-20T14:33:23.509Z,44.53
2019-05-20T14:35:53.237Z,44.60
2019-05-20T14:38:22.918Z,46.93
2019-05-20T14:40:53.166Z,46.33
2019-05-20T14:43:26.028Z,41.97
2019-05-20T14:45:55.912Z,44.63
2019-05-20T14:48:25.670Z,44.47
2019-05-20T14:50:56.073Z,42.60
2019-05-20T14:53:25.763Z,45.40
2019-05-20T14:55:55.403Z,44.17
2019-05-20T14:58:26.394Z,47.33
2019-05-20T15:00:56.180Z,44.20
2019-05-20T15:03:25.911Z,46.60
2019-05-20T15:05:55.698Z,46.57
2019-05-20T15:08:25.410Z,43.70
2019-05-20T15:10:55.056Z,43.30
2019-05-20T15:13:26.756Z,43.53
2019-05-20T15:15:58.246Z,43.37
2019-05-20T15:18:28.082Z,43.33
2019-05-20T15:20:57.896Z,43.90
2019-05-20T15:23:27.586Z,46.80
2019-05-20T15:25:57.288Z,44.63
2019-05-20T15:28:27.317Z,44.33
2019-05-20T15:30:57.155Z,42.50
2019-05-20T15:33:26.943Z,43.57
2019-05-20T15:35:56.766Z,44.40
2019-05-20T15:38:26.754Z,44.03
2019-05-20T15:40:56.562Z,44.70
2019-05-20T15:43:26.394Z,44.07
2019-05-20T15:45:56.356Z,41.70
2019-05-20T15:48:26.041Z,39.60
2019-05-20T15:50:55.867Z,39.77
2019-05-20T15:53:25.601Z,38.87
2019-05-20T15:55:55.342Z,38.70
2019-05-20T15:58:25.052Z,39.17
2019-05-20T16:00:56.144Z,39.57
2019-05-20T16:03:25.844Z,39.30
2019-05-20T16:05:59.719Z,40.67
2019-05-20T16:08:27.772Z,38.63
2019-05-20T16:10:57.598Z,41.17
2019-05-20T16:13:27.177Z,38.17
2019-05-20T16:15:56.896Z,41.27
2019-05-20T16:18:26.908Z,40.60
2019-05-20T16:20:56.748Z,41.00
2019-05-20T16:23:26.926Z,39.93
2019-05-20T16:25:56.847Z,39.23
2019-05-20T16:28:26.708Z,40.83
2019-05-20T16:30:56.440Z,40.93
2019-05-20T16:33:26.298Z,40.87
2019-05-20T16:35:56.037Z,41.10
2019-05-20T16:38:25.671Z,40.63
2019-05-20T16:40:56.375Z,40.77
2019-05-20T16:43:27.898Z,37.63
2019-05-20T16:45:57.637Z,41.37
2019-05-20T16:48:28.094Z,39.53
2019-05-20T16:50:57.857Z,40.37
2019-05-20T16:53:28.721Z,41.03
2019-05-20T16:55:58.471Z,40.70
2019-05-20T16:58:29.393Z,42.20
2019-05-20T17:01:00.241Z,44.03
2019-05-20T17:03:30.074Z,43.27
2019-05-20T17:06:01.283Z,43.87
2019-05-20T17:08:31.190Z,46.37
2019-05-20T17:11:01.107Z,47.87
2019-05-20T17:13:30.902Z,48.37
2019-05-20T17:16:01.299Z,49.10
2019-05-20T17:18:31.113Z,48.63
2019-05-20T17:21:01.012Z,51.07
2019-05-20T17:23:31.185Z,56.73
2019-05-20T17:26:00.978Z,43.50
2019-05-20T17:28:30.693Z,41.57
2019-05-20T17:31:00.660Z,43.40
2019-05-20T17:33:30.320Z,39.63
2019-05-20T17:36:00.221Z,44.07
2019-05-20T17:38:30.472Z,45.33
2019-05-20T17:41:01.311Z,50.77
2019-05-20T17:43:31.614Z,58.90
2019-05-20T17:46:02.194Z,59.23
2019-05-20T17:48:32.382Z,65.70
2019-05-20T17:51:02.394Z,74.53
2019-05-20T17:53:32.041Z,69.47
2019-05-20T17:56:02.186Z,67.60
2019-05-20T17:58:31.968Z,67.27
2019-05-20T18:01:14.654Z,57.63
2019-05-20T18:03:35.522Z,57.07
2019-05-20T18:06:06.879Z,53.30
2019-05-20T18:08:38.892Z,54.27
2019-05-20T18:11:08.860Z,47.87
2019-05-20T18:13:38.456Z,51.63
2019-05-20T18:16:08.467Z,51.67
2019-05-20T18:18:38.352Z,58.00
2019-05-20T18:21:08.185Z,56.67
2019-05-20T18:23:38.072Z,54.87
2019-05-20T18:26:08.174Z,58.00
2019-05-20T18:28:38.166Z,58.53
2019-05-20T18:31:08.054Z,58.10
2019-05-20T18:33:39.435Z,61.77
2019-05-20T18:36:09.809Z,60.17
2019-05-20T18:38:39.585Z,62.60
2019-05-20T18:41:09.383Z,59.03
2019-05-20T18:43:39.384Z,61.80
2019-05-20T18:46:09.198Z,60.70
2019-05-20T18:48:39.298Z,62.77
2019-05-20T18:51:09.363Z,59.07
2019-05-20T18:53:39.141Z,50.50
2019-05-20T18:56:08.925Z,54.67
2019-05-20T18:58:38.711Z,52.53
2019-05-20T19:01:08.837Z,55.03
2019-05-20T19:03:38.915Z,52.00
2019-05-20T19:06:10.384Z,51.17
2019-05-20T19:08:40.186Z,51.90
2019-05-20T19:11:11.280Z,51.63
2019-05-20T19:13:41.316Z,52.00
2019-05-20T19:16:11.825Z,51.57
2019-05-20T19:18:41.482Z,52.63
2019-05-20T19:21:11.439Z,51.90
2019-05-20T19:23:41.561Z,48.90
2019-05-20T19:26:23.773Z,50.57
2019-05-20T19:28:43.514Z,49.23
2019-05-20T19:31:13.470Z,52.03
2019-05-20T19:33:43.374Z,51.13
2019-05-20T19:36:14.928Z,47.17
2019-05-20T19:38:44.647Z,50.53
2019-05-20T19:41:14.582Z,48.63
2019-05-20T19:43:44.983Z,49.67
2019-05-20T19:46:14.837Z,51.97
2019-05-20T19:48:44.611Z,51.00
2019-05-20T19:51:16.117Z,46.77
2019-05-20T19:53:46.141Z,47.90
2019-05-20T19:56:16.155Z,49.27
2019-05-20T19:58:46.229Z,44.20
2019-05-20T20:01:16.459Z,45.87
2019-05-20T20:03:46.680Z,45.97
2019-05-20T20:06:16.750Z,44.23
2019-05-20T20:08:46.636Z,45.17
2019-05-20T20:11:16.645Z,44.83
2019-05-20T20:13:46.767Z,46.87
2019-05-20T20:16:18.428Z,44.63
2019-05-20T20:18:48.401Z,46.10
2019-05-20T20:21:18.435Z,45.97
2019-05-20T20:23:49.771Z,45.93
2019-05-20T20:26:21.448Z,44.60
2019-05-20T20:28:52.603Z,42.47
2019-05-20T20:31:22.332Z,42.90
2019-05-20T20:33:59.692Z,41.73
2019-05-20T20:36:30.924Z,40.77
2019-05-20T20:39:02.397Z,39.20
2019-05-20T20:41:33.365Z,41.03
2019-05-20T20:44:04.788Z,42.13
2019-05-20T20:46:34.569Z,41.33
2019-05-20T20:49:05.104Z,40.83
2019-05-20T20:51:34.946Z,37.23
2019-05-20T20:54:04.779Z,38.30
2019-05-20T20:56:34.811Z,37.20
2019-05-20T20:59:04.592Z,38.03
2019-05-20T21:01:34.245Z,35.30
2019-05-20T21:04:05.335Z,37.03
2019-05-20T21:06:42.407Z,36.70
2019-05-20T21:09:13.426Z,35.50
2019-05-20T21:11:43.360Z,36.60
2019-05-20T21:14:13.732Z,34.40
2019-05-20T21:16:43.344Z,34.23
2019-05-20T21:19:13.395Z,34.20
2019-05-20T21:21:43.216Z,31.77
2019-05-20T21:24:12.922Z,33.03
2019-05-20T21:26:42.860Z,33.60
2019-05-20T21:29:13.996Z,32.70
2019-05-20T21:31:43.855Z,33.00
2019-05-20T21:34:13.568Z,33.00
2019-05-20T21:36:47.549Z,33.17
2019-05-20T21:39:16.468Z,31.47
2019-05-20T21:41:46.189Z,33.87
2019-05-20T21:44:15.990Z,32.13
2019-05-20T21:47:09.982Z,35.73
2019-05-20T21:49:39.787Z,33.20
2019-05-20T21:52:09.456Z,33.33
2019-05-20T21:54:39.501Z,31.53
2019-05-20T21:57:09.259Z,33.53
2019-05-20T21:59:38.986Z,35.03
2019-05-20T22:02:10.125Z,33.17
2019-05-20T22:04:39.937Z,34.83
2019-05-20T22:07:11.095Z,34.17
2019-05-20T22:09:40.825Z,34.97
2019-05-20T22:12:10.549Z,33.70
2019-05-20T22:14:40.230Z,32.43
2019-05-20T22:17:10.891Z,35.37
2019-05-20T22:19:40.569Z,35.13
2019-05-20T22:22:19.199Z,36.93
2019-05-20T22:24:48.915Z,35.67
2019-05-20T22:27:18.513Z,35.17
2019-05-20T22:29:49.209Z,36.23
2019-05-20T22:32:18.880Z,36.87
2019-05-20T22:34:53.694Z,39.40
2019-05-20T22:37:19.943Z,37.60
2019-05-20T22:39:50.301Z,37.90
2019-05-20T22:42:20.044Z,39.07
2019-05-20T22:44:49.917Z,40.63
2019-05-20T22:47:21.132Z,40.07
2019-05-20T22:49:50.921Z,37.93
2019-05-20T22:52:20.568Z,38.53
2019-05-20T22:54:50.229Z,39.63
2019-05-20T22:57:20.236Z,42.37
2019-05-20T22:59:52.181Z,43.07
2019-05-20T23:02:22.229Z,43.27
2019-05-20T23:04:51.921Z,40.87
2019-05-20T23:07:21.685Z,43.43
2019-05-20T23:09:51.413Z,44.00
2019-05-20T23:12:21.098Z,42.87
2019-05-20T23:14:50.757Z,42.53
2019-05-20T23:17:20.691Z,42.37
2019-05-20T23:19:50.278Z,44.50
2019-05-20T23:22:20.009Z,44.03
2019-05-20T23:24:49.592Z,41.47
2019-05-20T23:27:19.399Z,42.40
2019-05-20T23:29:49.035Z,45.20
2019-05-20T23:32:18.828Z,42.20
2019-05-20T23:34:49.406Z,39.97
2019-05-20T23:37:19.164Z,42.17
2019-05-20T23:39:50.578Z,39.67
2019-05-20T23:42:20.320Z,39.90
2019-05-20T23:44:50.126Z,41.10
2019-05-20T23:47:19.901Z,38.30
2019-05-20T23:49:49.617Z,37.30
2019-05-20T23:52:19.358Z,36.47
2019-05-20T23:54:49.113Z,34.47
2019-05-20T23:57:19.034Z,34.40
2019-05-20T23:59:48.644Z,33.13
